sensor_id;sensor_type;location;lat;lon;timestamp;pressure;altitude;pressure_sealevel;temperature;humidity
10310;BME280;5200;43.236;27.986;2023-02-28T00:01:08;100924.44;;;4.72;100.00
10310;BME280;5200;43.236;27.986;2023-02-28T00:03:35;100950.75;;;4.85;100.00
10310;BME280;5200;43.236;27.986;2023-02-28T00:06:03;100928.66;;;4.75;100.00
10310;BME280;5200;43.236;27.986;2023-02-28T00:08:30;100931.78;;;4.81;100.00
10310;BME280;5200;43.236;27.986;2023-02-28T00:11:01;100958.47;;;4.86;100.00
10310;BME280;5200;43.236;27.986;2023-02-28T00:13:27;100968.66;;;4.91;100.00
10310;BME280;5200;43.236;27.986;2023-02-28T00:16:02;100942.94;;;4.85;100.00
10310;BME280;5200;43.236;27.986;2023-02-28T00:18:30;100984.56;;;5.04;100.00
10310;BME280;5200;43.236;27.986;2023-02-28T00:20:58;100958.81;;;4.80;100.00
10310;BME280;5200;43.236;27.986;2023-02-28T00:23:25;101012.91;;;5.10;100.00
10310;BME280;5200;43.236;27.986;2023-02-28T00:25:52;101004.34;;;5.08;100.00
10310;BME280;5200;43.236;27.986;2023-02-28T00:28:20;100976.50;;;4.91;100.00
10310;BME280;5200;43.236;27.986;2023-02-28T00:30:47;100958.56;;;4.85;100.00
10310;BME280;5200;43.236;27.986;2023-02-28T00:33:15;100989.84;;;5.02;100.00
10310;BME280;5200;43.236;27.986;2023-02-28T00:35:43;100996.59;;;5.06;100.00
10310;BME280;5200;43.236;27.986;2023-02-28T00:38:11;100955.19;;;4.83;100.00
10310;BME280;5200;43.236;27.986;2023-02-28T00:40:38;100974.66;;;4.93;100.00
10310;BME280;5200;43.236;27.986;2023-02-28T00:43:05;100993.53;;;4.98;100.00
10310;BME280;5200;43.236;27.986;2023-02-28T00:45:32;100969.13;;;4.82;100.00
10310;BME280;5200;43.236;27.986;2023-02-28T00:47:59;100979.88;;;4.93;100.00
10310;BME280;5200;43.236;27.986;2023-02-28T00:50:25;100985.09;;;4.93;100.00
10310;BME280;5200;43.236;27.986;2023-02-28T00:52:54;100932.88;;;4.60;100.00
10310;BME280;5200;43.236;27.986;2023-02-28T00:55:20;100953.50;;;4.64;100.00
10310;BME280;5200;43.236;27.986;2023-02-28T00:57:47;101007.41;;;4.81;100.00
10310;BME280;5200;43.236;27.986;2023-02-28T01:00:15;100995.53;;;4.76;100.00
10310;BME280;5200;43.236;27.986;2023-02-28T01:02:42;100979.66;;;4.80;100.00
10310;BME280;5200;43.236;27.986;2023-02-28T01:05:08;100934.81;;;4.56;100.00
10310;BME280;5200;43.236;27.986;2023-02-28T01:07:35;100990.75;;;4.84;100.00
10310;BME280;5200;43.236;27.986;2023-02-28T01:10:04;100985.88;;;4.78;100.00
10310;BME280;5200;43.236;27.986;2023-02-28T01:12:31;100959.66;;;4.63;100.00
10310;BME280;5200;43.236;27.986;2023-02-28T01:14:58;100933.13;;;4.38;100.00
10310;BME280;5200;43.236;27.986;2023-02-28T01:17:25;100955.47;;;4.42;100.00
10310;BME280;5200;43.236;27.986;2023-02-28T01:19:53;100978.47;;;4.51;100.00
10310;BME280;5200;43.236;27.986;2023-02-28T01:22:20;100994.13;;;4.51;100.00
10310;BME280;5200;43.236;27.986;2023-02-28T01:24:47;101037.47;;;4.71;100.00
10310;BME280;5200;43.236;27.986;2023-02-28T01:27:16;101033.66;;;4.78;100.00
10310;BME280;5200;43.236;27.986;2023-02-28T01:29:42;101033.59;;;4.80;100.00
10310;BME280;5200;43.236;27.986;2023-02-28T01:32:09;100957.56;;;4.35;100.00
10310;BME280;5200;43.236;27.986;2023-02-28T01:34:36;101019.28;;;4.70;100.00
10310;BME280;5200;43.236;27.986;2023-02-28T01:37:03;100999.19;;;4.54;100.00
10310;BME280;5200;43.236;27.986;2023-02-28T01:39:30;101017.28;;;4.57;100.00
10310;BME280;5200;43.236;27.986;2023-02-28T01:41:57;101041.63;;;4.75;100.00
10310;BME280;5200;43.236;27.986;2023-02-28T01:44:57;101036.47;;;4.74;100.00
10310;BME280;5200;43.236;27.986;2023-02-28T01:47:27;101002.59;;;4.56;100.00
10310;BME280;5200;43.236;27.986;2023-02-28T01:49:56;101019.81;;;4.59;100.00
10310;BME280;5200;43.236;27.986;2023-02-28T01:52:23;101015.34;;;4.61;100.00
10310;BME280;5200;43.236;27.986;2023-02-28T01:54:52;100947.81;;;4.21;100.00
10310;BME280;5200;43.236;27.986;2023-02-28T01:57:23;101005.41;;;4.52;100.00
10310;BME280;5200;43.236;27.986;2023-02-28T01:59:53;101029.38;;;4.58;100.00
10310;BME280;5200;43.236;27.986;2023-02-28T02:02:26;100968.63;;;4.21;100.00
10310;BME280;5200;43.236;27.986;2023-02-28T02:04:56;100983.19;;;4.26;100.00
10310;BME280;5200;43.236;27.986;2023-02-28T02:07:29;101053.16;;;4.52;100.00
10310;BME280;5200;43.236;27.986;2023-02-28T02:10:04;100978.13;;;4.22;100.00
10310;BME280;5200;43.236;27.986;2023-02-28T02:12:42;101029.47;;;4.57;100.00
10310;BME280;5200;43.236;27.986;2023-02-28T02:15:14;101013.56;;;4.44;100.00
10310;BME280;5200;43.236;27.986;2023-02-28T02:17:46;100991.50;;;4.34;100.00
10310;BME280;5200;43.236;27.986;2023-02-28T02:20:46;100977.50;;;4.17;100.00
10310;BME280;5200;43.236;27.986;2023-02-28T02:23:31;101018.53;;;4.31;100.00
10310;BME280;5200;43.236;27.986;2023-02-28T02:26:11;101009.69;;;4.16;100.00
10310;BME280;5200;43.236;27.986;2023-02-28T02:29:01;101056.66;;;4.51;100.00
10310;BME280;5200;43.236;27.986;2023-02-28T02:31:50;101053.16;;;4.52;100.00
10310;BME280;5200;43.236;27.986;2023-02-28T02:34:39;101021.69;;;4.38;100.00
10310;BME280;5200;43.236;27.986;2023-02-28T02:37:15;101032.44;;;4.49;100.00
10310;BME280;5200;43.236;27.986;2023-02-28T02:39:53;101030.34;;;4.38;100.00
10310;BME280;5200;43.236;27.986;2023-02-28T02:42:25;101016.31;;;4.23;100.00
10310;BME280;5200;43.236;27.986;2023-02-28T02:45:00;101028.69;;;4.18;100.00
10310;BME280;5200;43.236;27.986;2023-02-28T02:47:30;101015.59;;;4.20;100.00
10310;BME280;5200;43.236;27.986;2023-02-28T02:50:02;101045.28;;;4.35;100.00
10310;BME280;5200;43.236;27.986;2023-02-28T02:52:35;101055.69;;;4.35;100.00
10310;BME280;5200;43.236;27.986;2023-02-28T02:55:04;101040.38;;;4.29;100.00
10310;BME280;5200;43.236;27.986;2023-02-28T02:57:36;101033.88;;;4.18;100.00
10310;BME280;5200;43.236;27.986;2023-02-28T03:00:06;101030.66;;;4.13;100.00
10310;BME280;5200;43.236;27.986;2023-02-28T03:02:35;101019.88;;;4.02;100.00
10310;BME280;5200;43.236;27.986;2023-02-28T03:05:08;101026.63;;;4.25;100.00
10310;BME280;5200;43.236;27.986;2023-02-28T03:07:38;101042.88;;;4.30;100.00
10310;BME280;5200;43.236;27.986;2023-02-28T03:10:33;101064.72;;;4.28;100.00
10310;BME280;5200;43.236;27.986;2023-02-28T03:13:26;101048.69;;;4.18;100.00
10310;BME280;5200;43.236;27.986;2023-02-28T03:16:19;101067.63;;;4.21;100.00
10310;BME280;5200;43.236;27.986;2023-02-28T03:18:53;101035.03;;;3.94;100.00
10310;BME280;5200;43.236;27.986;2023-02-28T03:21:28;101069.38;;;4.02;100.00
10310;BME280;5200;43.236;27.986;2023-02-28T03:24:03;101093.72;;;4.01;100.00
10310;BME280;5200;43.236;27.986;2023-02-28T03:26:34;101104.88;;;4.05;100.00
10310;BME280;5200;43.236;27.986;2023-02-28T03:29:05;101049.81;;;3.74;100.00
10310;BME280;5200;43.236;27.986;2023-02-28T03:31:40;101088.06;;;4.12;100.00
10310;BME280;5200;43.236;27.986;2023-02-28T03:34:10;101004.41;;;3.61;100.00
10310;BME280;5200;43.236;27.986;2023-02-28T03:36:44;101040.06;;;3.78;100.00
10310;BME280;5200;43.236;27.986;2023-02-28T03:39:15;101014.88;;;3.59;100.00
10310;BME280;5200;43.236;27.986;2023-02-28T03:41:45;101025.81;;;3.68;100.00
10310;BME280;5200;43.236;27.986;2023-02-28T03:44:18;101052.31;;;3.76;100.00
10310;BME280;5200;43.236;27.986;2023-02-28T03:46:53;101072.13;;;3.99;100.00
10310;BME280;5200;43.236;27.986;2023-02-28T03:49:26;101026.41;;;3.54;100.00
10310;BME280;5200;43.236;27.986;2023-02-28T03:51:58;101095.69;;;3.96;100.00
10310;BME280;5200;43.236;27.986;2023-02-28T03:54:29;101088.66;;;3.98;100.00
10310;BME280;5200;43.236;27.986;2023-02-28T03:57:00;101045.63;;;3.70;100.00
10310;BME280;5200;43.236;27.986;2023-02-28T03:59:34;101089.34;;;3.83;100.00
10310;BME280;5200;43.236;27.986;2023-02-28T04:02:02;101082.56;;;3.78;100.00
10310;BME280;5200;43.236;27.986;2023-02-28T04:04:29;101128.78;;;3.94;100.00
10310;BME280;5200;43.236;27.986;2023-02-28T04:07:04;101120.03;;;3.95;100.00
10310;BME280;5200;43.236;27.986;2023-02-28T04:09:32;101027.97;;;3.58;100.00
10310;BME280;5200;43.236;27.986;2023-02-28T04:11:58;101085.50;;;3.91;100.00
10310;BME280;5200;43.236;27.986;2023-02-28T04:14:26;101013.19;;;3.58;100.00
10310;BME280;5200;43.236;27.986;2023-02-28T04:16:53;101083.16;;;4.04;100.00
10310;BME280;5200;43.236;27.986;2023-02-28T04:19:20;101052.84;;;3.84;100.00
10310;BME280;5200;43.236;27.986;2023-02-28T04:21:48;101052.69;;;3.87;100.00
10310;BME280;5200;43.236;27.986;2023-02-28T04:24:18;101103.88;;;4.07;100.00
10310;BME280;5200;43.236;27.986;2023-02-28T04:26:47;101084.91;;;3.85;100.00
10310;BME280;5200;43.236;27.986;2023-02-28T04:29:18;101034.84;;;3.59;100.00
10310;BME280;5200;43.236;27.986;2023-02-28T04:31:46;101061.22;;;3.91;100.00
10310;BME280;5200;43.236;27.986;2023-02-28T04:34:12;101049.25;;;3.87;100.00
10310;BME280;5200;43.236;27.986;2023-02-28T04:36:40;101074.09;;;3.94;100.00
10310;BME280;5200;43.236;27.986;2023-02-28T04:39:06;101088.78;;;3.95;100.00
10310;BME280;5200;43.236;27.986;2023-02-28T04:41:36;101090.34;;;3.99;100.00
10310;BME280;5200;43.236;27.986;2023-02-28T04:44:03;101056.41;;;3.81;100.00
10310;BME280;5200;43.236;27.986;2023-02-28T04:46:30;101034.44;;;3.68;100.00
10310;BME280;5200;43.236;27.986;2023-02-28T04:48:57;101010.38;;;3.63;100.00
10310;BME280;5200;43.236;27.986;2023-02-28T04:51:24;101038.88;;;3.85;100.00
10310;BME280;5200;43.236;27.986;2023-02-28T04:53:52;101030.81;;;3.72;100.00
10310;BME280;5200;43.236;27.986;2023-02-28T04:56:18;101073.16;;;3.95;100.00
10310;BME280;5200;43.236;27.986;2023-02-28T04:58:47;101054.59;;;3.84;100.00
10310;BME280;5200;43.236;27.986;2023-02-28T05:01:20;101054.72;;;3.80;100.00
10310;BME280;5200;43.236;27.986;2023-02-28T05:03:48;101055.22;;;3.89;100.00
10310;BME280;5200;43.236;27.986;2023-02-28T05:06:16;101080.22;;;3.93;100.00
10310;BME280;5200;43.236;27.986;2023-02-28T05:08:43;101089.66;;;3.95;100.00
10310;BME280;5200;43.236;27.986;2023-02-28T05:11:15;101095.56;;;3.99;100.00
10310;BME280;5200;43.236;27.986;2023-02-28T05:13:42;101092.47;;;3.91;100.00
10310;BME280;5200;43.236;27.986;2023-02-28T05:16:10;101111.97;;;4.01;100.00
10310;BME280;5200;43.236;27.986;2023-02-28T05:18:37;101105.97;;;3.99;100.00
10310;BME280;5200;43.236;27.986;2023-02-28T05:21:05;101065.28;;;3.77;100.00
10310;BME280;5200;43.236;27.986;2023-02-28T05:23:32;101092.88;;;4.00;100.00
10310;BME280;5200;43.236;27.986;2023-02-28T05:25:59;101091.91;;;4.03;100.00
10310;BME280;5200;43.236;27.986;2023-02-28T05:28:25;101095.69;;;3.96;100.00
10310;BME280;5200;43.236;27.986;2023-02-28T05:30:52;101114.22;;;4.09;100.00
10310;BME280;5200;43.236;27.986;2023-02-28T05:33:20;101119.22;;;4.13;100.00
10310;BME280;5200;43.236;27.986;2023-02-28T05:35:47;101113.03;;;4.16;100.00
10310;BME280;5200;43.236;27.986;2023-02-28T05:38:14;101080.78;;;3.99;100.00
10310;BME280;5200;43.236;27.986;2023-02-28T05:40:41;101083.47;;;3.98;100.00
10310;BME280;5200;43.236;27.986;2023-02-28T05:43:10;101142.66;;;4.13;100.00
10310;BME280;5200;43.236;27.986;2023-02-28T05:45:37;101148.78;;;4.12;100.00
10310;BME280;5200;43.236;27.986;2023-02-28T05:48:04;101150.75;;;4.07;100.00
10310;BME280;5200;43.236;27.986;2023-02-28T05:50:32;101166.25;;;4.10;100.00
10310;BME280;5200;43.236;27.986;2023-02-28T05:52:59;101188.75;;;4.11;100.00
10310;BME280;5200;43.236;27.986;2023-02-28T05:55:26;101180.84;;;3.94;100.00
10310;BME280;5200;43.236;27.986;2023-02-28T05:57:52;101218.09;;;4.16;100.00
10310;BME280;5200;43.236;27.986;2023-02-28T06:00:19;101219.63;;;4.20;100.00
10310;BME280;5200;43.236;27.986;2023-02-28T06:02:46;101191.50;;;4.08;100.00
10310;BME280;5200;43.236;27.986;2023-02-28T06:05:15;101201.47;;;4.19;100.00
10310;BME280;5200;43.236;27.986;2023-02-28T06:07:44;101196.13;;;4.01;100.00
10310;BME280;5200;43.236;27.986;2023-02-28T06:10:11;101193.34;;;3.86;100.00
10310;BME280;5200;43.236;27.986;2023-02-28T06:12:38;101179.97;;;3.74;100.00
10310;BME280;5200;43.236;27.986;2023-02-28T06:15:07;101144.28;;;3.56;100.00
10310;BME280;5200;43.236;27.986;2023-02-28T06:17:34;101143.75;;;3.48;100.00
10310;BME280;5200;43.236;27.986;2023-02-28T06:20:01;101159.25;;;3.51;100.00
10310;BME280;5200;43.236;27.986;2023-02-28T06:22:28;101193.47;;;3.62;100.00
10310;BME280;5200;43.236;27.986;2023-02-28T06:24:56;101194.38;;;3.61;100.00
10310;BME280;5200;43.236;27.986;2023-02-28T06:27:23;101185.88;;;3.57;100.00
10310;BME280;5200;43.236;27.986;2023-02-28T06:29:53;101190.09;;;3.60;100.00
10310;BME280;5200;43.236;27.986;2023-02-28T06:32:21;101159.56;;;3.43;100.00
10310;BME280;5200;43.236;27.986;2023-02-28T06:34:48;101174.53;;;3.58;100.00
10310;BME280;5200;43.236;27.986;2023-02-28T06:37:16;101160.66;;;3.37;100.00
10310;BME280;5200;43.236;27.986;2023-02-28T06:39:43;101162.34;;;3.38;100.00
10310;BME280;5200;43.236;27.986;2023-02-28T06:42:11;101185.97;;;3.54;100.00
10310;BME280;5200;43.236;27.986;2023-02-28T06:44:38;101186.81;;;3.55;100.00
10310;BME280;5200;43.236;27.986;2023-02-28T06:47:05;101176.34;;;3.56;100.00
10310;BME280;5200;43.236;27.986;2023-02-28T06:49:34;101158.56;;;3.46;100.00
10310;BME280;5200;43.236;27.986;2023-02-28T06:52:01;101184.91;;;3.60;100.00
10310;BME280;5200;43.236;27.986;2023-02-28T06:54:28;101182.28;;;3.60;100.00
10310;BME280;5200;43.236;27.986;2023-02-28T06:56:55;101166.94;;;3.54;100.00
10310;BME280;5200;43.236;27.986;2023-02-28T06:59:23;101185.53;;;3.65;100.00
10310;BME280;5200;43.236;27.986;2023-02-28T07:01:50;101167.66;;;3.57;100.00
10310;BME280;5200;43.236;27.986;2023-02-28T07:04:17;101146.63;;;3.42;100.00
10310;BME280;5200;43.236;27.986;2023-02-28T07:06:44;101191.00;;;3.59;100.00
10310;BME280;5200;43.236;27.986;2023-02-28T07:09:11;101172.38;;;3.48;100.00
10310;BME280;5200;43.236;27.986;2023-02-28T07:11:39;101168.59;;;3.55;100.00
10310;BME280;5200;43.236;27.986;2023-02-28T07:14:08;101183.78;;;3.66;100.00
10310;BME280;5200;43.236;27.986;2023-02-28T07:16:37;101193.34;;;3.65;100.00
10310;BME280;5200;43.236;27.986;2023-02-28T07:19:03;101173.94;;;3.52;100.00
10310;BME280;5200;43.236;27.986;2023-02-28T07:21:30;101161.72;;;3.54;100.00
10310;BME280;5200;43.236;27.986;2023-02-28T07:23:57;101187.75;;;3.74;100.00
10310;BME280;5200;43.236;27.986;2023-02-28T07:26:24;101187.44;;;3.82;100.00
10310;BME280;5200;43.236;27.986;2023-02-28T07:28:51;101187.44;;;3.82;100.00
10310;BME280;5200;43.236;27.986;2023-02-28T07:31:18;101178.69;;;3.83;100.00
10310;BME280;5200;43.236;27.986;2023-02-28T07:33:46;101156.78;;;3.68;100.00
10310;BME280;5200;43.236;27.986;2023-02-28T07:36:14;101163.78;;;3.66;100.00
10310;BME280;5200;43.236;27.986;2023-02-28T07:38:43;101154.56;;;3.59;100.00
10310;BME280;5200;43.236;27.986;2023-02-28T07:41:10;101195.56;;;3.74;100.00
10310;BME280;5200;43.236;27.986;2023-02-28T07:43:38;101146.75;;;3.59;100.00
10310;BME280;5200;43.236;27.986;2023-02-28T07:46:07;101144.94;;;3.61;100.00
10310;BME280;5200;43.236;27.986;2023-02-28T07:48:35;101148.56;;;3.77;100.00
10310;BME280;5200;43.236;27.986;2023-02-28T07:51:04;101167.25;;;3.87;100.00
10310;BME280;5200;43.236;27.986;2023-02-28T07:53:31;101178.63;;;4.05;100.00
10310;BME280;5200;43.236;27.986;2023-02-28T07:56:00;101171.44;;;4.10;100.00
10310;BME280;5200;43.236;27.986;2023-02-28T07:58:28;101181.47;;;4.19;100.00
10310;BME280;5200;43.236;27.986;2023-02-28T08:00:55;101155.13;;;4.26;100.00
10310;BME280;5200;43.236;27.986;2023-02-28T08:03:23;101146.00;;;4.36;100.00
10310;BME280;5200;43.236;27.986;2023-02-28T08:05:50;101181.06;;;4.48;100.00
10310;BME280;5200;43.236;27.986;2023-02-28T08:08:19;101148.97;;;4.28;100.00
10310;BME280;5200;43.236;27.986;2023-02-28T08:10:46;101190.09;;;4.59;100.00
10310;BME280;5200;43.236;27.986;2023-02-28T08:13:13;101167.75;;;4.35;100.00
10310;BME280;5200;43.236;27.986;2023-02-28T08:15:41;101189.09;;;4.24;100.00
10310;BME280;5200;43.236;27.986;2023-02-28T08:18:08;101194.56;;;4.18;100.00
10310;BME280;5200;43.236;27.986;2023-02-28T08:20:35;101168.69;;;4.13;100.00
10310;BME280;5200;43.236;27.986;2023-02-28T08:23:02;101223.03;;;4.41;100.00
10310;BME280;5200;43.236;27.986;2023-02-28T08:25:33;101209.22;;;4.39;100.00
10310;BME280;5200;43.236;27.986;2023-02-28T08:27:59;101198.91;;;4.38;100.00
10310;BME280;5200;43.236;27.986;2023-02-28T08:30:26;101210.09;;;4.40;100.00
10310;BME280;5200;43.236;27.986;2023-02-28T08:32:53;101205.72;;;4.59;100.00
10310;BME280;5200;43.236;27.986;2023-02-28T08:35:20;101206.22;;;4.49;100.00
10310;BME280;5200;43.236;27.986;2023-02-28T08:37:47;101217.38;;;4.71;100.00
10310;BME280;5200;43.236;27.986;2023-02-28T08:40:15;101199.38;;;4.46;100.00
10310;BME280;5200;43.236;27.986;2023-02-28T08:42:45;101218.00;;;4.57;100.00
10310;BME280;5200;43.236;27.986;2023-02-28T08:45:13;101186.13;;;4.32;100.00
10310;BME280;5200;43.236;27.986;2023-02-28T08:47:40;101208.97;;;4.45;100.00
10310;BME280;5200;43.236;27.986;2023-02-28T08:50:08;101201.91;;;4.29;100.00
10310;BME280;5200;43.236;27.986;2023-02-28T08:52:35;101189.28;;;4.19;100.00
10310;BME280;5200;43.236;27.986;2023-02-28T08:55:04;101226.94;;;4.52;100.00
10310;BME280;5200;43.236;27.986;2023-02-28T08:57:31;101208.03;;;4.47;100.00
10310;BME280;5200;43.236;27.986;2023-02-28T09:00:00;101214.66;;;4.54;100.00
10310;BME280;5200;43.236;27.986;2023-02-28T09:02:29;101234.56;;;4.56;100.00
10310;BME280;5200;43.236;27.986;2023-02-28T09:04:56;101186.13;;;4.32;100.00
10310;BME280;5200;43.236;27.986;2023-02-28T09:07:24;101229.63;;;4.69;100.00
10310;BME280;5200;43.236;27.986;2023-02-28T09:09:51;101225.19;;;4.90;100.00
10310;BME280;5200;43.236;27.986;2023-02-28T09:12:21;101225.59;;;5.00;100.00
10310;BME280;5200;43.236;27.986;2023-02-28T09:14:48;101194.25;;;4.82;100.00
10310;BME280;5200;43.236;27.986;2023-02-28T09:17:16;101224.16;;;5.12;100.00
10310;BME280;5200;43.236;27.986;2023-02-28T09:19:43;101206.66;;;4.96;100.00
10310;BME280;5200;43.236;27.986;2023-02-28T09:22:11;101215.00;;;5.03;100.00
10310;BME280;5200;43.236;27.986;2023-02-28T09:24:38;101201.47;;;5.14;100.00
10310;BME280;5200;43.236;27.986;2023-02-28T09:27:05;101225.09;;;5.11;100.00
10310;BME280;5200;43.236;27.986;2023-02-28T09:29:34;101218.53;;;5.02;100.00
10310;BME280;5200;43.236;27.986;2023-02-28T09:32:01;101190.94;;;4.79;100.00
10310;BME280;5200;43.236;27.986;2023-02-28T09:34:32;101198.81;;;4.58;100.00
10310;BME280;5200;43.236;27.986;2023-02-28T09:36:59;101213.03;;;4.70;100.00
10310;BME280;5200;43.236;27.986;2023-02-28T09:39:26;101203.50;;;4.71;100.00
10310;BME280;5200;43.236;27.986;2023-02-28T09:41:55;101193.19;;;4.68;100.00
10310;BME280;5200;43.236;27.986;2023-02-28T09:44:26;101219.75;;;4.76;100.00
10310;BME280;5200;43.236;27.986;2023-02-28T09:46:58;101187.41;;;4.61;100.00
10310;BME280;5200;43.236;27.986;2023-02-28T09:49:34;101230.41;;;4.90;100.00
10310;BME280;5200;43.236;27.986;2023-02-28T09:52:06;101225.59;;;4.81;100.00
10310;BME280;5200;43.236;27.986;2023-02-28T09:54:36;101205.78;;;4.58;100.00
10310;BME280;5200;43.236;27.986;2023-02-28T09:57:07;101247.81;;;4.71;100.00
10310;BME280;5200;43.236;27.986;2023-02-28T10:02:46;101259.91;;;4.72;100.00
10310;BME280;5200;43.236;27.986;2023-02-28T10:05:18;101228.81;;;4.48;100.00
10310;BME280;5200;43.236;27.986;2023-02-28T10:07:56;101233.16;;;4.29;100.00
10310;BME280;5200;43.236;27.986;2023-02-28T10:10:29;101224.56;;;4.27;100.00
10310;BME280;5200;43.236;27.986;2023-02-28T10:13:00;101216.13;;;4.21;100.00
10310;BME280;5200;43.236;27.986;2023-02-28T10:15:31;101256.72;;;4.46;100.00
10310;BME280;5200;43.236;27.986;2023-02-28T10:18:02;101230.06;;;4.39;100.00
10310;BME280;5200;43.236;27.986;2023-02-28T10:20:32;101226.44;;;4.62;100.00
10310;BME280;5200;43.236;27.986;2023-02-28T10:23:07;101236.44;;;4.72;100.00
10310;BME280;5200;43.236;27.986;2023-02-28T10:25:37;101199.69;;;4.59;100.00
10310;BME280;5200;43.236;27.986;2023-02-28T10:28:09;101226.66;;;4.58;100.00
10310;BME280;5200;43.236;27.986;2023-02-28T10:30:40;101210.09;;;4.40;100.00
10310;BME280;5200;43.236;27.986;2023-02-28T10:33:17;101232.38;;;4.47;100.00
10310;BME280;5200;43.236;27.986;2023-02-28T10:35:46;101187.84;;;4.33;100.00
10310;BME280;5200;43.236;27.986;2023-02-28T10:38:17;101198.81;;;4.58;100.00
10310;BME280;5200;43.236;27.986;2023-02-28T10:40:44;101183.72;;;4.27;100.00
10310;BME280;5200;43.236;27.986;2023-02-28T10:43:20;101209.03;;;4.44;100.00
10310;BME280;5200;43.236;27.986;2023-02-28T10:45:59;101198.13;;;4.55;100.00
10310;BME280;5200;43.236;27.986;2023-02-28T10:48:31;101179.72;;;4.39;100.00
10310;BME280;5200;43.236;27.986;2023-02-28T10:51:01;101200.00;;;4.51;100.00
10310;BME280;5200;43.236;27.986;2023-02-28T10:53:36;101167.47;;;4.41;100.00
10310;BME280;5200;43.236;27.986;2023-02-28T10:56:08;101204.91;;;4.59;100.00
10310;BME280;5200;43.236;27.986;2023-02-28T10:58:50;101166.53;;;4.42;100.00
10310;BME280;5200;43.236;27.986;2023-02-28T11:01:19;101193.19;;;4.68;100.00
10310;BME280;5200;43.236;27.986;2023-02-28T11:03:47;101167.84;;;4.52;100.00
10310;BME280;5200;43.236;27.986;2023-02-28T11:06:20;101187.69;;;4.74;100.00
10310;BME280;5200;43.236;27.986;2023-02-28T11:08:50;101180.16;;;4.68;100.00
10310;BME280;5200;43.236;27.986;2023-02-28T11:11:19;101169.72;;;4.68;100.00
10310;BME280;5200;43.236;27.986;2023-02-28T11:13:48;101145.84;;;4.39;100.00
10310;BME280;5200;43.236;27.986;2023-02-28T11:16:16;101129.16;;;4.43;100.00
10310;BME280;5200;43.236;27.986;2023-02-28T11:18:47;101141.19;;;4.64;100.00
10310;BME280;5200;43.236;27.986;2023-02-28T11:21:20;101151.47;;;4.68;100.00
10310;BME280;5200;43.236;27.986;2023-02-28T11:23:49;101173.38;;;4.82;100.00
10310;BME280;5200;43.236;27.986;2023-02-28T11:29:08;101171.38;;;5.06;100.00
10310;BME280;5200;43.236;27.986;2023-02-28T11:31:36;101150.66;;;5.03;100.00
10310;BME280;5200;43.236;27.986;2023-02-28T11:34:23;101173.56;;;4.97;100.00
10310;BME280;5200;43.236;27.986;2023-02-28T11:36:53;101124.31;;;4.54;100.00
10310;BME280;5200;43.236;27.986;2023-02-28T11:39:21;101167.53;;;4.77;100.00
10310;BME280;5200;43.236;27.986;2023-02-28T11:42:07;101155.75;;;4.87;100.00
10310;BME280;5200;43.236;27.986;2023-02-28T11:44:43;101153.84;;;4.91;100.00
10310;BME280;5200;43.236;27.986;2023-02-28T11:47:20;101161.47;;;4.77;100.00
10310;BME280;5200;43.236;27.986;2023-02-28T11:50:04;101152.16;;;4.90;100.00
10310;BME280;5200;43.236;27.986;2023-02-28T11:52:44;101122.47;;;4.56;100.00
10310;BME280;5200;43.236;27.986;2023-02-28T11:55:17;101145.53;;;4.83;100.00
10310;BME280;5200;43.236;27.986;2023-02-28T11:58:00;101134.78;;;4.72;100.00
10310;BME280;5200;43.236;27.986;2023-02-28T12:00:44;101129.28;;;4.78;100.00
10310;BME280;5200;43.236;27.986;2023-02-28T12:03:26;101127.09;;;4.69;100.00
10310;BME280;5200;43.236;27.986;2023-02-28T12:06:01;101135.56;;;4.74;100.00
10310;BME280;5200;43.236;27.986;2023-02-28T12:08:47;101114.13;;;4.67;100.00
10310;BME280;5200;43.236;27.986;2023-02-28T12:11:27;101108.84;;;4.69;100.00
10310;BME280;5200;43.236;27.986;2023-02-28T12:14:13;101103.88;;;4.64;100.00
10310;BME280;5200;43.236;27.986;2023-02-28T12:16:50;101106.53;;;4.62;100.00
10310;BME280;5200;43.236;27.986;2023-02-28T12:19:26;101148.94;;;4.85;100.00
10310;BME280;5200;43.236;27.986;2023-02-28T12:22:28;101130.63;;;4.68;100.00
10310;BME280;5200;43.236;27.986;2023-02-28T12:28:01;101151.78;;;4.61;100.00
10310;BME280;5200;43.236;27.986;2023-02-28T12:30:31;101158.50;;;4.65;100.00
10310;BME280;5200;43.236;27.986;2023-02-28T12:33:03;101149.94;;;4.63;100.00
10310;BME280;5200;43.236;27.986;2023-02-28T12:35:34;101114.31;;;4.45;100.00
10310;BME280;5200;43.236;27.986;2023-02-28T12:38:06;101121.75;;;4.53;100.00
10310;BME280;5200;43.236;27.986;2023-02-28T12:40:44;101148.53;;;4.56;100.00
10310;BME280;5200;43.236;27.986;2023-02-28T12:43:14;101148.09;;;4.65;100.00
10310;BME280;5200;43.236;27.986;2023-02-28T12:45:45;101130.06;;;4.42;100.00
10310;BME280;5200;43.236;27.986;2023-02-28T12:48:20;101119.63;;;4.42;100.00
10310;BME280;5200;43.236;27.986;2023-02-28T12:50:48;101119.00;;;4.37;100.00
10310;BME280;5200;43.236;27.986;2023-02-28T12:53:22;101128.25;;;4.44;100.00
10310;BME280;5200;43.236;27.986;2023-02-28T12:56:01;101128.59;;;4.55;100.00
10310;BME280;5200;43.236;27.986;2023-02-28T12:58:34;101138.22;;;4.53;100.00
10310;BME280;5200;43.236;27.986;2023-02-28T13:01:22;101150.50;;;4.51;100.00
10310;BME280;5200;43.236;27.986;2023-02-28T13:04:19;101144.75;;;4.44;100.00
10310;BME280;5200;43.236;27.986;2023-02-28T13:07:10;101153.31;;;4.47;100.00
10310;BME280;5200;43.236;27.986;2023-02-28T13:09:40;101151.13;;;4.37;100.00
10310;BME280;5200;43.236;27.986;2023-02-28T13:12:14;101151.34;;;4.33;100.00
10310;BME280;5200;43.236;27.986;2023-02-28T13:14:43;101134.28;;;4.26;100.00
10310;BME280;5200;43.236;27.986;2023-02-28T13:17:11;101149.88;;;4.46;100.00